createdAt,value
2022-09-16T00:00:56.780Z,0.63
2022-09-16T00:03:24.189Z,0.80
2022-09-16T00:05:53.128Z,0.68
2022-09-16T00:08:21.522Z,0.60
2022-09-16T00:10:49.552Z,0.40
2022-09-16T00:13:17.292Z,0.60
2022-09-16T00:15:51.042Z,0.40
2022-09-16T00:18:20.339Z,0.50
2022-09-16T00:20:52.244Z,0.40
2022-09-16T00:23:20.125Z,0.47
2022-09-16T00:25:54.723Z,0.40
2022-09-16T00:28:22.921Z,0.60
2022-09-16T00:30:50.619Z,0.40
2022-09-16T00:33:19.356Z,0.65
2022-09-16T00:35:47.850Z,0.50
2022-09-16T00:38:15.230Z,0.70
2022-09-16T00:40:50.474Z,0.45
2022-09-16T00:43:19.584Z,0.50
2022-09-16T00:46:07.089Z,0.50
2022-09-16T00:48:34.873Z,0.47
2022-09-16T00:51:09.281Z,0.40
2022-09-16T00:53:52.079Z,0.52
2022-09-16T00:56:24.196Z,0.60
2022-09-16T00:59:02.174Z,0.50
2022-09-16T01:01:31.267Z,0.55
2022-09-16T01:04:08.462Z,0.38
2022-09-16T01:06:39.608Z,0.40
2022-09-16T01:09:07.302Z,0.63
2022-09-16T01:11:34.567Z,0.50
2022-09-16T01:14:22.649Z,0.40
2022-09-16T01:17:10.109Z,0.52
2022-09-16T01:20:15.825Z,0.43
2022-09-16T01:23:00.632Z,0.50
2022-09-16T01:25:39.701Z,0.40
2022-09-16T01:28:28.496Z,0.60
2022-09-16T01:31:20.272Z,0.30
2022-09-16T01:34:25.683Z,0.40
2022-09-16T01:37:02.194Z,0.40
2022-09-16T01:39:44.236Z,0.50
2022-09-16T01:42:16.987Z,0.63
2022-09-16T01:45:16.389Z,0.40
2022-09-16T01:47:58.594Z,0.40
2022-09-16T01:50:35.911Z,0.40
2022-09-16T01:53:24.167Z,0.50
2022-09-16T01:55:58.059Z,0.40
2022-09-16T01:58:43.366Z,0.80
2022-09-16T02:01:23.521Z,0.55
2022-09-16T02:03:57.839Z,0.47
2022-09-16T02:06:28.026Z,0.40
2022-09-16T02:09:07.237Z,0.47
2022-09-16T02:11:38.455Z,0.45
2022-09-16T02:14:20.562Z,0.32
2022-09-16T02:16:54.492Z,0.40
2022-09-16T02:19:26.283Z,0.40
2022-09-16T02:21:56.587Z,0.40
2022-09-16T02:24:27.225Z,0.43
2022-09-16T02:27:00.813Z,0.50
2022-09-16T02:29:37.662Z,0.57
2022-09-16T02:32:09.191Z,0.40
2022-09-16T02:34:46.680Z,0.40
2022-09-16T02:37:22.148Z,0.40
2022-09-16T02:39:55.127Z,0.40
2022-09-16T02:42:22.515Z,0.40
2022-09-16T02:44:49.943Z,0.45
2022-09-16T02:47:31.701Z,0.40
2022-09-16T02:50:08.804Z,0.38
2022-09-16T02:53:26.316Z,0.38
2022-09-16T02:56:06.968Z,0.30
2022-09-16T02:58:34.281Z,0.40
2022-09-16T03:01:02.353Z,0.52
2022-09-16T03:03:29.734Z,0.40
2022-09-16T03:06:19.617Z,0.38
2022-09-16T03:08:48.553Z,0.40
2022-09-16T03:11:40.156Z,0.32
2022-09-16T03:14:10.096Z,0.40
2022-09-16T03:16:49.884Z,0.47
2022-09-16T03:19:25.744Z,0.40
2022-09-16T03:22:08.552Z,0.30
2022-09-16T03:24:58.036Z,0.47
2022-09-16T03:27:57.066Z,0.45
2022-09-16T03:30:24.422Z,0.40
2022-09-16T03:33:00.818Z,0.65
2022-09-16T03:35:43.128Z,0.35
2022-09-16T03:38:13.350Z,0.30
2022-09-16T03:40:42.561Z,0.30
2022-09-16T03:43:15.162Z,0.40
2022-09-16T03:45:43.569Z,0.43
2022-09-16T03:48:12.609Z,0.35
2022-09-16T03:50:39.854Z,0.35
2022-09-16T03:53:07.134Z,0.40
2022-09-16T03:55:34.495Z,0.43
2022-09-16T03:58:01.823Z,0.50
2022-09-16T04:00:29.229Z,0.50
2022-09-16T04:02:56.824Z,0.40
2022-09-16T04:05:24.392Z,0.40
2022-09-16T04:07:51.661Z,0.40
2022-09-16T04:10:19.129Z,0.70
2022-09-16T04:12:46.371Z,0.57
2022-09-16T04:15:13.937Z,0.60
2022-09-16T04:17:41.197Z,0.60
2022-09-16T04:20:09.239Z,0.43
2022-09-16T04:22:36.551Z,0.85
2022-09-16T04:25:04.594Z,0.50
2022-09-16T04:27:31.959Z,0.98
2022-09-16T04:29:59.171Z,0.50
2022-09-16T04:32:26.461Z,0.75
2022-09-16T04:34:53.778Z,0.60
2022-09-16T04:37:20.953Z,0.60
2022-09-16T04:39:48.167Z,0.60
2022-09-16T04:42:15.461Z,0.65
2022-09-16T04:44:42.752Z,0.77
2022-09-16T04:47:09.987Z,0.40
2022-09-16T04:49:37.179Z,0.80
2022-09-16T04:52:04.440Z,0.73
2022-09-16T04:54:32.454Z,0.77
2022-09-16T04:57:01.407Z,0.40
2022-09-16T04:59:28.611Z,0.70
2022-09-16T05:01:55.930Z,0.55
2022-09-16T05:04:23.255Z,0.60
2022-09-16T05:06:50.547Z,0.70
2022-09-16T05:09:17.831Z,0.55
2022-09-16T05:11:45.143Z,0.50
2022-09-16T05:14:16.542Z,0.50
2022-09-16T05:16:45.109Z,0.50
2022-09-16T05:19:13.881Z,0.63
2022-09-16T05:21:42.269Z,0.80
2022-09-16T05:24:12.067Z,0.65
2022-09-16T05:26:44.873Z,0.65
2022-09-16T05:29:17.021Z,0.60
2022-09-16T05:31:47.545Z,0.50
2022-09-16T05:34:20.487Z,0.70
2022-09-16T05:36:49.433Z,0.50
2022-09-16T05:39:25.871Z,0.60
2022-09-16T05:41:59.406Z,0.50
2022-09-16T05:44:28.888Z,0.70
2022-09-16T05:46:56.709Z,0.40
2022-09-16T05:49:24.223Z,0.50
2022-09-16T05:51:52.077Z,0.65
2022-09-16T05:54:20.161Z,0.65
2022-09-16T05:56:48.180Z,0.50
2022-09-16T05:59:16.821Z,0.60
2022-09-16T06:01:45.269Z,0.55
2022-09-16T06:04:14.466Z,0.38
2022-09-16T06:06:44.609Z,0.63
2022-09-16T06:09:15.522Z,0.70
2022-09-16T06:11:45.610Z,0.70
2022-09-16T06:14:14.044Z,0.57
2022-09-16T06:16:42.013Z,0.60
2022-09-16T06:19:13.168Z,0.60
2022-09-16T06:21:41.594Z,0.43
2022-09-16T06:24:10.035Z,0.50
2022-09-16T06:26:40.032Z,0.70
2022-09-16T06:29:08.360Z,0.70
2022-09-16T06:31:37.688Z,0.70
2022-09-16T06:34:05.730Z,0.85
2022-09-16T06:36:38.525Z,0.60
2022-09-16T06:39:07.828Z,0.55
2022-09-16T06:41:35.406Z,0.60
2022-09-16T06:44:02.792Z,0.45
2022-09-16T06:46:30.555Z,0.50
2022-09-16T06:49:04.352Z,0.63
2022-09-16T06:51:34.371Z,1.17
2022-09-16T06:54:07.539Z,0.50
2022-09-16T06:56:37.748Z,0.90
2022-09-16T06:59:05.303Z,0.90
2022-09-16T07:01:33.288Z,0.70
2022-09-16T07:04:05.546Z,0.80
2022-09-16T07:06:57.747Z,0.50
2022-09-16T07:09:21.274Z,0.50
2022-09-16T07:11:48.471Z,0.70
2022-09-16T07:14:15.740Z,0.63
2022-09-16T07:16:42.986Z,0.90
2022-09-16T07:19:10.537Z,0.80
2022-09-16T07:21:37.804Z,0.50
2022-09-16T07:24:05.168Z,0.60
2022-09-16T07:26:34.843Z,0.60
2022-09-16T07:29:04.299Z,0.60
2022-09-16T07:31:37.189Z,0.73
2022-09-16T07:34:06.507Z,0.60
2022-09-16T07:36:38.270Z,0.65
2022-09-16T07:39:06.509Z,0.70
2022-09-16T07:41:36.428Z,0.50
2022-09-16T07:44:05.566Z,0.57
2022-09-16T07:46:36.213Z,0.70
2022-09-16T07:49:06.563Z,0.57
2022-09-16T07:51:34.821Z,0.70
2022-09-16T07:54:05.678Z,0.70
2022-09-16T07:56:35.576Z,0.70
2022-09-16T07:59:05.150Z,1.02
2022-09-16T08:01:32.729Z,0.80
2022-09-16T08:04:00.952Z,0.63
2022-09-16T08:06:30.322Z,0.80
2022-09-16T08:09:10.081Z,0.60
2022-09-16T08:11:47.186Z,0.60
2022-09-16T08:14:14.538Z,0.50
2022-09-16T08:16:41.829Z,0.90
2022-09-16T08:19:09.895Z,0.90
2022-09-16T08:21:37.170Z,0.63
2022-09-16T08:24:04.696Z,0.60
2022-09-16T08:26:32.018Z,0.68
2022-09-16T08:29:14.874Z,0.90
2022-09-16T08:31:42.430Z,1.00
2022-09-16T08:34:09.735Z,0.88
2022-09-16T08:36:37.207Z,0.73
2022-09-16T08:39:04.646Z,0.93
2022-09-16T08:41:50.832Z,0.80
2022-09-16T08:44:46.791Z,1.25
2022-09-16T08:47:44.580Z,0.88
2022-09-16T08:50:26.057Z,0.68
2022-09-16T08:52:56.824Z,0.80
2022-09-16T08:55:39.759Z,0.80
2022-09-16T08:58:11.822Z,0.63
2022-09-16T09:00:42.250Z,0.68
2022-09-16T09:03:43.614Z,0.60
2022-09-16T09:06:39.750Z,0.55
2022-09-16T09:09:29.412Z,0.68
2022-09-16T09:12:02.173Z,0.77
2022-09-16T09:15:01.841Z,0.60
2022-09-16T09:17:53.316Z,0.50
2022-09-16T09:20:46.192Z,0.50
2022-09-16T09:23:35.161Z,0.93
2022-09-16T09:26:08.694Z,0.50
2022-09-16T09:29:13.574Z,0.70
2022-09-16T09:31:57.742Z,0.70
2022-09-16T09:34:46.539Z,0.52
2022-09-16T09:37:27.497Z,0.60
2022-09-16T09:40:34.812Z,0.70
2022-09-16T09:43:27.148Z,0.60
2022-09-16T09:46:10.919Z,0.50
2022-09-16T09:48:48.050Z,0.70
2022-09-16T09:51:55.798Z,1.15
2022-09-16T09:54:26.136Z,1.00
2022-09-16T09:57:25.797Z,0.95
2022-09-16T10:00:12.134Z,1.00
2022-09-16T10:02:49.631Z,0.80
2022-09-16T10:05:21.413Z,0.70
2022-09-16T10:07:50.961Z,0.98
2022-09-16T10:10:26.217Z,0.60
2022-09-16T10:12:54.391Z,0.68
2022-09-16T10:15:30.875Z,0.85
2022-09-16T10:18:01.489Z,0.70
2022-09-16T10:20:34.903Z,0.63
2022-09-16T10:23:12.213Z,0.60
2022-09-16T10:25:40.391Z,0.80
2022-09-16T10:28:21.486Z,0.70
2022-09-16T10:30:55.337Z,0.70
2022-09-16T10:33:36.828Z,0.50
2022-09-16T10:36:10.299Z,0.90
2022-09-16T10:38:44.460Z,0.70
2022-09-16T10:41:34.713Z,0.90
2022-09-16T10:44:07.248Z,0.60
2022-09-16T10:46:35.098Z,0.63
2022-09-16T10:49:12.532Z,0.88
2022-09-16T10:51:39.750Z,0.68
2022-09-16T10:54:07.153Z,0.80
2022-09-16T10:56:47.969Z,0.90
2022-09-16T10:59:18.593Z,0.65
2022-09-16T11:02:04.888Z,0.68
2022-09-16T11:04:38.012Z,1.00
2022-09-16T11:07:14.246Z,0.70
2022-09-16T11:10:05.499Z,1.00
2022-09-16T11:12:44.587Z,1.00
2022-09-16T11:15:18.155Z,0.75
2022-09-16T11:18:03.646Z,1.10
2022-09-16T11:21:08.450Z,1.20
2022-09-16T11:23:54.503Z,1.10
2022-09-16T11:26:44.952Z,1.00
2022-09-16T11:29:35.513Z,1.10
2022-09-16T11:32:29.109Z,1.00
2022-09-16T11:35:47.628Z,1.23
2022-09-16T11:38:49.029Z,1.40
2022-09-16T11:41:21.940Z,1.15
2022-09-16T11:44:24.530Z,1.10
2022-09-16T11:47:24.246Z,1.27
2022-09-16T11:50:08.253Z,0.98
2022-09-16T11:52:46.740Z,1.23
2022-09-16T11:55:20.455Z,0.90
2022-09-16T11:57:56.888Z,1.00
2022-09-16T12:00:24.478Z,1.23
2022-09-16T12:03:01.239Z,1.00
2022-09-16T12:05:53.436Z,1.05
2022-09-16T12:08:48.790Z,0.82
2022-09-16T12:11:27.105Z,0.60
2022-09-16T12:14:08.422Z,0.60
2022-09-16T12:16:52.116Z,1.00
2022-09-16T12:19:32.385Z,0.85
2022-09-16T12:22:08.526Z,0.90
2022-09-16T12:25:02.263Z,0.77
2022-09-16T12:27:38.269Z,0.90
2022-09-16T12:30:05.769Z,0.70
2022-09-16T12:33:00.024Z,1.10
2022-09-16T12:35:36.675Z,0.87
2022-09-16T12:38:04.629Z,0.90
2022-09-16T12:41:03.642Z,0.95
2022-09-16T12:44:23.679Z,0.80
2022-09-16T12:47:16.807Z,0.57
2022-09-16T12:50:13.134Z,0.82
2022-09-16T12:53:11.446Z,0.90
2022-09-16T12:55:41.740Z,0.55
2022-09-16T12:58:31.733Z,0.88
2022-09-16T13:01:13.828Z,0.57
2022-09-16T13:03:45.991Z,0.60
2022-09-16T13:06:28.711Z,1.00
2022-09-16T13:08:57.112Z,0.80
2022-09-16T13:14:25.380Z,0.60
2022-09-16T13:16:56.138Z,0.50
2022-09-16T13:19:47.438Z,0.60
2022-09-16T13:22:30.724Z,0.85
2022-09-16T13:25:19.829Z,0.60
2022-09-16T13:28:31.520Z,0.50
2022-09-16T13:31:11.155Z,0.80
2022-09-16T13:33:44.007Z,0.50
2022-09-16T13:36:20.117Z,0.55
2022-09-16T13:39:12.148Z,0.70
2022-09-16T13:41:41.388Z,0.90
2022-09-16T13:44:27.153Z,0.98
2022-09-16T13:46:54.673Z,0.90
2022-09-16T13:49:25.932Z,1.10
2022-09-16T13:51:53.775Z,2.30
2022-09-16T13:54:30.994Z,1.65
2022-09-16T13:57:12.838Z,1.77
2022-09-16T14:00:09.571Z,1.38
2022-09-16T14:02:45.661Z,1.88
2022-09-16T14:05:24.597Z,1.83
2022-09-16T14:08:28.989Z,2.25
2022-09-16T14:11:20.303Z,2.10
2022-09-16T14:13:51.305Z,2.55
2022-09-16T14:16:24.733Z,3.50
2022-09-16T14:19:20.512Z,3.60
2022-09-16T14:22:13.701Z,2.97
2022-09-16T14:24:43.096Z,3.22
2022-09-16T14:27:27.266Z,3.08
2022-09-16T14:29:59.887Z,2.83
2022-09-16T14:32:30.524Z,2.88
2022-09-16T14:35:02.225Z,1.90
2022-09-16T14:37:32.242Z,2.20
2022-09-16T14:40:11.656Z,1.92
2022-09-16T14:42:47.308Z,1.70
2022-09-16T14:45:20.077Z,1.85
2022-09-16T14:47:52.974Z,1.40
2022-09-16T14:50:28.468Z,1.45
2022-09-16T14:53:01.263Z,1.02
2022-09-16T14:55:31.693Z,1.30
2022-09-16T14:58:00.123Z,1.48
2022-09-16T15:00:49.201Z,1.35
2022-09-16T15:04:06.988Z,1.35
2022-09-16T15:06:41.014Z,1.40
2022-09-16T15:09:37.672Z,1.48
2022-09-16T15:12:05.450Z,1.10
2022-09-16T15:14:37.214Z,1.60
2022-09-16T15:17:04.758Z,1.10
2022-09-16T15:19:41.420Z,0.80
2022-09-16T15:22:14.200Z,1.15
2022-09-16T15:24:42.689Z,1.00
2022-09-16T15:27:10.552Z,1.00
2022-09-16T15:29:49.473Z,1.45
2022-09-16T15:32:18.525Z,1.38
2022-09-16T15:34:46.366Z,1.00
2022-09-16T15:37:33.820Z,1.08
2022-09-16T15:40:20.610Z,1.10
2022-09-16T15:43:02.394Z,1.00
2022-09-16T15:45:29.776Z,0.85
2022-09-16T15:48:09.269Z,0.73
2022-09-16T15:50:44.921Z,1.02
2022-09-16T15:53:22.558Z,0.90
2022-09-16T15:55:49.717Z,0.80
2022-09-16T15:58:32.429Z,1.02
2022-09-16T16:01:11.843Z,0.73
2022-09-16T16:03:58.708Z,0.75
2022-09-16T16:06:50.535Z,0.80
2022-09-16T16:09:30.370Z,0.88
2022-09-16T16:12:11.101Z,1.00
2022-09-16T16:14:40.173Z,0.88
2022-09-16T16:17:20.050Z,1.00
2022-09-16T16:19:50.001Z,0.90
2022-09-16T16:22:18.052Z,0.80
2022-09-16T16:24:45.452Z,0.80
2022-09-16T16:27:12.852Z,1.20
2022-09-16T16:29:40.070Z,0.90
2022-09-16T16:32:15.215Z,0.80
2022-09-16T16:34:44.706Z,0.80
2022-09-16T16:37:33.875Z,0.82
2022-09-16T16:40:03.413Z,0.90
2022-09-16T16:42:31.143Z,1.05
2022-09-16T16:44:58.462Z,0.80
2022-09-16T16:47:26.312Z,0.90
2022-09-16T16:49:53.879Z,1.15
2022-09-16T16:52:21.085Z,0.82
2022-09-16T16:54:48.313Z,1.05
2022-09-16T16:57:15.624Z,1.15
2022-09-16T16:59:42.841Z,0.73
2022-09-16T17:02:11.686Z,0.88
2022-09-16T17:04:39.032Z,1.10
2022-09-16T17:07:25.031Z,1.15
2022-09-16T17:09:53.532Z,1.02
2022-09-16T17:12:20.854Z,1.00
2022-09-16T17:14:48.160Z,1.42
2022-09-16T17:17:15.375Z,0.90
2022-09-16T17:19:42.595Z,1.20
2022-09-16T17:22:09.827Z,1.15
2022-09-16T17:24:37.082Z,1.17
2022-09-16T17:27:04.539Z,1.00
2022-09-16T17:29:31.764Z,1.20
2022-09-16T17:32:02.417Z,1.05
2022-09-16T17:34:30.103Z,1.00
2022-09-16T17:36:58.313Z,1.35
2022-09-16T17:39:26.182Z,1.38
2022-09-16T17:41:56.488Z,1.60
2022-09-16T17:44:24.768Z,1.60
2022-09-16T17:46:52.060Z,1.25
2022-09-16T17:49:23.830Z,1.38
2022-09-16T17:51:52.394Z,1.58
2022-09-16T17:54:20.200Z,1.25
2022-09-16T17:56:47.980Z,1.10
2022-09-16T17:59:18.154Z,1.65
2022-09-16T18:01:45.950Z,1.45
2022-09-16T18:04:13.584Z,1.55
2022-09-16T18:06:43.470Z,1.83
2022-09-16T18:09:11.421Z,1.50
2022-09-16T18:11:39.723Z,1.35
2022-09-16T18:14:10.336Z,1.50
2022-09-16T18:16:37.935Z,1.38
2022-09-16T18:19:05.793Z,1.55
2022-09-16T18:21:33.605Z,1.60
2022-09-16T18:24:03.155Z,1.10
2022-09-16T18:26:31.415Z,1.13
2022-09-16T18:29:16.659Z,1.25
2022-09-16T18:31:47.361Z,1.30
2022-09-16T18:34:15.980Z,1.45
2022-09-16T18:36:43.344Z,1.45
2022-09-16T18:39:17.196Z,1.50
2022-09-16T18:41:46.138Z,1.40
2022-09-16T18:44:20.223Z,1.13
2022-09-16T18:46:47.758Z,1.77
2022-09-16T18:49:16.703Z,2.17
2022-09-16T18:51:51.772Z,1.30
2022-09-16T18:54:28.669Z,1.27
2022-09-16T18:56:57.595Z,1.10
2022-09-16T18:59:28.575Z,1.20
2022-09-16T19:02:02.638Z,1.05
2022-09-16T19:04:32.604Z,1.25
2022-09-16T19:07:08.212Z,1.50
2022-09-16T19:09:38.177Z,1.30
2022-09-16T19:12:12.552Z,1.23
2022-09-16T19:14:40.828Z,0.90
2022-09-16T19:17:08.651Z,1.40
2022-09-16T19:19:36.157Z,1.10
2022-09-16T19:22:05.924Z,1.00
2022-09-16T19:24:34.092Z,1.25
2022-09-16T19:27:01.394Z,1.35
2022-09-16T19:29:28.670Z,1.15
2022-09-16T19:31:56.298Z,1.30
2022-09-16T19:34:23.665Z,1.67
2022-09-16T19:36:51.765Z,1.05
2022-09-16T19:39:21.085Z,1.48
2022-09-16T19:41:48.327Z,1.20
2022-09-16T19:44:17.398Z,1.38
2022-09-16T19:46:47.108Z,1.27
2022-09-16T19:49:20.081Z,1.13
2022-09-16T19:51:48.885Z,1.15
2022-09-16T19:54:16.827Z,1.20
2022-09-16T19:56:49.522Z,0.98
2022-09-16T19:59:18.721Z,1.10
2022-09-16T20:01:46.456Z,1.00
2022-09-16T20:04:14.303Z,1.33
2022-09-16T20:06:42.699Z,1.38
2022-09-16T20:09:12.033Z,1.10
2022-09-16T20:11:41.392Z,1.08
2022-09-16T20:14:14.477Z,1.50
2022-09-16T20:16:42.552Z,1.58
2022-09-16T20:19:12.862Z,1.00
2022-09-16T20:21:41.042Z,1.40
2022-09-16T20:24:13.630Z,1.13
2022-09-16T20:26:40.938Z,1.35
2022-09-16T20:29:08.168Z,1.27
2022-09-16T20:31:37.260Z,1.10
2022-09-16T20:34:05.356Z,1.50
2022-09-16T20:36:36.562Z,1.17
2022-09-16T20:39:05.029Z,0.95
2022-09-16T20:41:34.695Z,1.40
2022-09-16T20:44:02.248Z,1.20
2022-09-16T20:46:35.506Z,1.92
2022-09-16T20:49:05.148Z,1.40
2022-09-16T20:51:34.094Z,1.38
2022-09-16T20:54:08.138Z,1.50
2022-09-16T20:56:38.943Z,1.20
2022-09-16T20:59:11.461Z,1.20
2022-09-16T21:01:40.613Z,1.42
2022-09-16T21:04:13.507Z,1.10
2022-09-16T21:06:41.440Z,1.02
2022-09-16T21:09:13.935Z,1.00
2022-09-16T21:11:44.416Z,1.13
2022-09-16T21:14:15.155Z,1.00
2022-09-16T21:16:44.021Z,1.13
2022-09-16T21:19:12.760Z,1.00
2022-09-16T21:21:44.141Z,1.05
2022-09-16T21:24:11.724Z,1.10
2022-09-16T21:26:40.961Z,1.02
2022-09-16T21:29:17.512Z,1.10
2022-09-16T21:31:44.871Z,1.23
2022-09-16T21:34:20.550Z,1.02
2022-09-16T21:36:48.957Z,1.10
2022-09-16T21:39:18.083Z,0.90
2022-09-16T21:41:47.005Z,1.10
2022-09-16T21:44:15.460Z,0.90
2022-09-16T21:46:45.295Z,0.90
2022-09-16T21:49:28.941Z,1.52
2022-09-16T21:51:58.528Z,0.95
2022-09-16T21:54:26.564Z,0.90
2022-09-16T21:56:54.015Z,1.17
2022-09-16T21:59:21.435Z,0.90
2022-09-16T22:01:51.041Z,0.88
2022-09-16T22:04:23.491Z,0.73
2022-09-16T22:06:52.781Z,0.80
2022-09-16T22:09:20.467Z,0.95
2022-09-16T22:11:48.037Z,1.20
2022-09-16T22:14:16.159Z,1.08
2022-09-16T22:16:43.544Z,0.95
2022-09-16T22:19:13.973Z,0.95
2022-09-16T22:21:44.085Z,1.02
2022-09-16T22:24:12.102Z,0.85
2022-09-16T22:26:39.961Z,1.00
2022-09-16T22:29:09.084Z,0.93
2022-09-16T22:31:38.845Z,1.20
2022-09-16T22:34:06.306Z,1.10
2022-09-16T22:36:36.567Z,1.00
2022-09-16T22:39:11.875Z,0.80
2022-09-16T22:41:39.378Z,0.90
2022-09-16T22:44:06.730Z,0.80
2022-09-16T22:46:42.788Z,0.80
2022-09-16T22:49:10.939Z,0.98
2022-09-16T22:51:38.757Z,1.00
2022-09-16T22:54:06.602Z,0.80
2022-09-16T22:56:34.267Z,0.85
2022-09-16T22:59:04.145Z,0.80
2022-09-16T23:01:37.540Z,0.90
2022-09-16T23:04:07.142Z,0.90
2022-09-16T23:06:36.110Z,0.88
2022-09-16T23:09:04.867Z,0.80
2022-09-16T23:11:34.384Z,0.90
2022-09-16T23:14:02.427Z,0.90
2022-09-16T23:16:33.421Z,0.82
2022-09-16T23:19:02.360Z,0.77
2022-09-16T23:21:30.073Z,0.90
2022-09-16T23:24:01.148Z,0.90
2022-09-16T23:26:33.887Z,0.90
2022-09-16T23:29:03.526Z,1.15
2022-09-16T23:31:33.169Z,1.00
2022-09-16T23:34:01.825Z,1.20
2022-09-16T23:36:29.131Z,0.93
2022-09-16T23:38:56.653Z,1.67
2022-09-16T23:41:28.601Z,1.05
2022-09-16T23:43:56.725Z,0.88
2022-09-16T23:46:27.285Z,0.82
2022-09-16T23:48:54.878Z,0.88
2022-09-16T23:51:28.025Z,0.90
2022-09-16T23:53:56.980Z,0.90
2022-09-16T23:56:24.682Z,1.10
2022-09-16T23:58:52.815Z,0.80
